Time;durP1;ratioP1;P1;durP2;ratioP2;P2;SDS_P1;SDS_P2;PMS_P1;PMS_P2;Temp;Humidity;BMP_temperature;BMP_pressure;BME280_temperature;BME280_humidity;BME280_pressure;Samples;Min_cycle;Max_cycle;Signal;HPM_P1;HPM_P2
2022/09/12 00:01:18;;;;;;;15.73;9.23;;;14.80;91.30;;;;;;5040181;28;20868;-71
2022/09/12 00:03:44;;;;;;;14.63;9.57;;;14.80;91.50;;;;;;5038749;28;20471;-72
2022/09/12 00:06:16;;;;;;;15.00;8.50;;;14.80;91.40;;;;;;5038424;28;20411;-71
2022/09/12 00:08:42;;;;;;;11.80;8.33;;;14.80;91.50;;;;;;5037083;28;20423;-71
2022/09/12 00:11:10;;;;;;;12.97;7.73;;;14.80;91.60;;;;;;5040047;28;20427;-71
2022/09/12 00:13:37;;;;;;;12.13;7.47;;;14.80;91.50;;;;;;5040575;28;20459;-70
2022/09/12 00:16:03;;;;;;;15.03;8.17;;;14.80;91.50;;;;;;5039755;28;20506;-71
2022/09/12 00:18:29;;;;;;;13.57;7.77;;;14.80;91.50;;;;;;5043716;28;20877;-72
2022/09/12 00:20:55;;;;;;;14.70;8.30;;;14.80;91.50;;;;;;5041307;28;20461;-71
2022/09/12 00:23:20;;;;;;;13.93;8.30;;;14.80;91.50;;;;;;5039964;28;20209;-72
2022/09/12 00:25:47;;;;;;;11.00;7.80;;;14.80;91.60;;;;;;5042854;28;20246;-70
2022/09/12 00:28:15;;;;;;;13.97;8.90;;;14.70;91.70;;;;;;5044515;28;20207;-71
2022/09/12 00:30:46;;;;;;;14.70;9.10;;;14.70;91.70;;;;;;5043077;28;20461;-73
2022/09/12 00:33:13;;;;;;;19.90;10.57;;;14.70;92.00;;;;;;5049086;28;20505;-71
2022/09/12 00:35:51;;;;;;;12.70;8.40;;;14.60;92.00;;;;;;5040166;28;20898;-72
2022/09/12 00:38:18;;;;;;;13.23;7.80;;;14.60;92.10;;;;;;5045028;28;20488;-71
2022/09/12 00:40:44;;;;;;;15.23;8.80;;;14.70;92.10;;;;;;5050629;28;20463;-71
2022/09/12 00:43:32;;;;;;;15.57;9.67;;;14.70;92.00;;;;;;5049737;28;20489;-70
2022/09/12 00:46:01;;;;;;;13.10;8.07;;;14.70;92.00;;;;;;5041556;28;20416;-72
2022/09/12 00:48:33;;;;;;;13.77;8.70;;;14.60;92.10;;;;;;5046046;28;20474;-71
2022/09/12 00:51:00;;;;;;;14.77;8.83;;;14.60;92.20;;;;;;5039757;28;21255;-70
2022/09/12 00:53:26;;;;;;;14.83;8.30;;;14.60;92.20;;;;;;5038381;28;20479;-70
2022/09/12 00:55:53;;;;;;;15.07;9.10;;;14.60;92.30;;;;;;5036694;28;20865;-70
2022/09/12 00:58:24;;;;;;;16.03;9.47;;;14.60;92.30;;;;;;5044598;28;20426;-72
2022/09/12 01:00:50;;;;;;;15.80;9.97;;;14.50;92.00;;;;;;5043026;28;20475;-71
2022/09/12 01:03:18;;;;;;;13.90;8.77;;;14.50;92.00;;;;;;5037894;28;20491;-71
2022/09/12 01:05:54;;;;;;;19.37;10.77;;;14.50;91.90;;;;;;5043488;28;21143;-73
2022/09/12 01:08:20;;;;;;;18.13;10.37;;;14.40;91.90;;;;;;5034497;28;20412;-71
2022/09/12 01:10:47;;;;;;;21.43;11.50;;;14.20;92.20;;;;;;5041396;28;20412;-71
2022/09/12 01:13:13;;;;;;;14.40;9.10;;;14.20;92.50;;;;;;5037067;28;20552;-71
2022/09/12 01:15:39;;;;;;;17.40;10.20;;;14.10;92.80;;;;;;5042043;28;20760;-71
2022/09/12 01:18:23;;;;;;;16.80;9.13;;;14.20;93.00;;;;;;5046593;28;20460;-71
2022/09/12 01:21:05;;;;;;;15.43;8.80;;;14.20;93.00;;;;;;5044517;28;20818;-72
2022/09/12 01:23:48;;;;;;;15.80;8.70;;;14.20;92.90;;;;;;5041938;28;20891;-70
2022/09/12 01:26:30;;;;;;;14.60;9.00;;;14.30;92.90;;;;;;5039251;28;20929;-71
2022/09/12 01:29:16;;;;;;;18.23;9.67;;;14.20;92.80;;;;;;5046236;28;20845;-72
2022/09/12 01:31:47;;;;;;;15.33;9.13;;;14.20;93.20;;;;;;5039674;28;20430;-72
2022/09/12 01:34:29;;;;;;;17.07;10.13;;;14.10;93.30;;;;;;5042869;28;20459;-70
2022/09/12 01:37:13;;;;;;;15.40;9.30;;;14.10;93.40;;;;;;5040410;28;20431;-71
2022/09/12 01:40:22;;;;;;;16.10;9.67;;;14.00;93.60;;;;;;5045152;28;20541;-71
2022/09/12 01:43:23;;;;;;;16.10;9.17;;;14.00;93.80;;;;;;4972672;28;20927;-71
2022/09/12 01:46:16;;;;;;;20.20;10.90;;;14.00;93.90;;;;;;4980671;28;20939;-71
2022/09/12 01:49:04;;;;;;;18.13;10.40;;;13.90;93.80;;;;;;4980876;28;20809;-71
2022/09/12 01:51:43;;;;;;;19.20;9.60;;;13.90;93.70;;;;;;4980034;28;20526;-69
2022/09/12 01:54:17;;;;;;;26.27;11.77;;;13.80;93.60;;;;;;4979703;28;20453;-71
2022/09/12 01:56:44;;;;;;;17.27;10.40;;;13.80;93.60;;;;;;4982951;28;20425;-71
2022/09/12 01:59:23;;;;;;;17.77;11.60;;;13.80;93.90;;;;;;4983791;28;20524;-71
2022/09/12 02:01:57;;;;;;;21.77;11.57;;;13.80;93.80;;;;;;4980952;28;20477;-71
2022/09/12 02:04:39;;;;;;;16.30;10.90;;;13.80;93.90;;;;;;4977600;28;20466;-71
2022/09/12 02:07:10;;;;;;;18.10;11.20;;;13.80;93.90;;;;;;4983527;28;20436;-71
2022/09/12 02:10:06;;;;;;;24.40;13.03;;;13.80;94.00;;;;;;4973750;28;20442;-72
2022/09/12 02:12:56;;;;;;;20.07;10.10;;;13.80;93.90;;;;;;4982698;28;20980;-71
2022/09/12 02:15:29;;;;;;;18.87;11.47;;;13.90;93.70;;;;;;4980674;28;20418;-70
2022/09/12 02:17:58;;;;;;;17.77;10.00;;;13.90;93.50;;;;;;4996152;28;20537;-69
2022/09/12 02:20:37;;;;;;;19.57;11.93;;;13.80;93.50;;;;;;5041133;28;20468;-71
2022/09/12 02:23:08;;;;;;;21.07;12.20;;;13.90;93.60;;;;;;5037204;28;20581;-71
2022/09/12 02:25:36;;;;;;;22.60;12.40;;;13.80;93.40;;;;;;5042117;28;20416;-71
2022/09/12 02:28:15;;;;;;;25.87;14.03;;;13.70;93.60;;;;;;5040050;28;20789;-71
2022/09/12 02:30:50;;;;;;;20.40;11.53;;;13.70;93.60;;;;;;5044202;28;20918;-71
2022/09/12 02:33:26;;;;;;;22.80;11.70;;;13.60;93.60;;;;;;5043352;28;20493;-71
2022/09/12 02:36:01;;;;;;;20.27;12.27;;;13.60;93.60;;;;;;5045773;28;20511;-71
2022/09/12 02:38:50;;;;;;;20.53;12.40;;;13.60;93.90;;;;;;5048055;28;20434;-73
2022/09/12 02:41:19;;;;;;;20.50;12.80;;;13.50;93.90;;;;;;5042105;28;20466;-71
2022/09/12 02:43:46;;;;;;;22.30;12.33;;;13.60;94.10;;;;;;5046500;28;20464;-70
2022/09/12 02:46:36;;;;;;;28.03;14.50;;;13.60;94.10;;;;;;5040263;28;20423;-71
2022/09/12 02:49:02;;;;;;;22.93;12.63;;;13.60;94.00;;;;;;5047073;28;20418;-71
2022/09/12 02:51:28;;;;;;;19.07;11.83;;;13.50;94.00;;;;;;5039554;28;20780;-71
2022/09/12 02:53:54;;;;;;;18.90;11.07;;;13.50;94.10;;;;;;5042124;28;20452;-73
2022/09/12 02:56:27;;;;;;;20.43;11.70;;;13.50;94.20;;;;;;5040465;28;20433;-71
2022/09/12 02:58:58;;;;;;;25.83;12.80;;;13.50;94.20;;;;;;5047262;28;20428;-71
2022/09/12 03:01:38;;;;;;;20.63;11.77;;;13.50;94.20;;;;;;5050234;28;20477;-72
2022/09/12 03:04:17;;;;;;;21.60;12.87;;;13.50;94.10;;;;;;5049915;28;20447;-70
2022/09/12 03:07:14;;;;;;;18.17;10.70;;;13.40;94.10;;;;;;5042834;28;20486;-71
2022/09/12 03:10:06;;;;;;;18.97;10.43;;;13.40;94.40;;;;;;5028094;28;20415;-71
2022/09/12 03:12:56;;;;;;;22.23;12.23;;;13.40;94.50;;;;;;5049322;28;20506;-71
2022/09/12 03:15:36;;;;;;;20.33;11.50;;;13.40;94.40;;;;;;5047968;28;20469;-70
2022/09/12 03:18:30;;;;;;;21.23;11.60;;;13.40;94.30;;;;;;5047123;28;20478;-71
2022/09/12 03:21:15;;;;;;;18.80;10.50;;;13.40;94.40;;;;;;5050119;28;21021;-70
2022/09/12 03:23:46;;;;;;;20.80;11.30;;;13.30;94.30;;;;;;5038357;28;20471;-70
2022/09/12 03:26:19;;;;;;;19.60;10.90;;;13.40;94.50;;;;;;5040846;28;20423;-72
2022/09/12 03:28:47;;;;;;;23.23;12.00;;;13.40;94.40;;;;;;5049790;28;20415;-69
2022/09/12 03:31:15;;;;;;;20.53;11.20;;;13.40;94.40;;;;;;5047803;28;20423;-72
2022/09/12 03:33:41;;;;;;;17.93;9.70;;;13.30;94.40;;;;;;5041357;28;20450;-71
2022/09/12 03:36:23;;;;;;;16.70;9.77;;;13.40;94.40;;;;;;5045370;28;20458;-71
2022/09/12 03:38:49;;;;;;;18.47;9.93;;;13.40;94.30;;;;;;5039708;28;20786;-71
2022/09/12 03:41:14;;;;;;;14.63;8.73;;;13.40;94.40;;;;;;5046673;28;20497;-71
2022/09/12 03:43:40;;;;;;;21.70;11.23;;;13.40;94.30;;;;;;5044225;28;20246;-71
2022/09/12 03:46:05;;;;;;;15.33;9.20;;;13.30;94.20;;;;;;5045609;28;20574;-71
2022/09/12 03:48:31;;;;;;;18.47;11.43;;;13.10;94.40;;;;;;5045051;28;20212;-71
2022/09/12 03:51:05;;;;;;;20.83;11.83;;;13.10;94.70;;;;;;5050214;28;20192;-72
2022/09/12 03:53:31;;;;;;;18.20;10.87;;;13.20;94.90;;;;;;5047646;28;20209;-71
2022/09/12 03:55:57;;;;;;;22.07;12.63;;;13.10;94.80;;;;;;5050094;28;20929;-73
2022/09/12 03:58:23;;;;;;;22.40;11.87;;;13.10;94.90;;;;;;5053772;28;20647;-74
2022/09/12 04:00:49;;;;;;;18.87;11.27;;;13.10;95.00;;;;;;5054127;28;20455;-71
2022/09/12 04:03:15;;;;;;;19.10;10.97;;;13.10;95.10;;;;;;5058855;28;20566;-72
2022/09/12 04:05:41;;;;;;;18.10;10.27;;;13.10;95.10;;;;;;5053045;28;20420;-72
2022/09/12 04:08:06;;;;;;;17.03;10.53;;;13.20;94.90;;;;;;5053453;28;20177;-71
2022/09/12 04:10:32;;;;;;;26.23;11.00;;;13.20;94.70;;;;;;5048990;28;20181;-70
2022/09/12 04:12:57;;;;;;;16.50;10.43;;;13.20;94.60;;;;;;5050904;28;20640;-72
2022/09/12 04:15:23;;;;;;;17.37;9.20;;;13.10;94.60;;;;;;5045552;28;20185;-73
2022/09/12 04:17:49;;;;;;;16.10;9.83;;;13.10;94.60;;;;;;5049960;28;20560;-71
2022/09/12 04:20:14;;;;;;;17.17;9.50;;;13.10;94.60;;;;;;5040311;28;20200;-72
2022/09/12 04:22:40;;;;;;;17.00;10.37;;;13.10;94.60;;;;;;5045323;28;20605;-72
2022/09/12 04:25:06;;;;;;;17.40;10.30;;;13.10;94.50;;;;;;5043966;28;20276;-71
2022/09/12 04:27:32;;;;;;;17.50;10.10;;;13.00;94.50;;;;;;5052803;28;20300;-72
2022/09/12 04:29:59;;;;;;;20.17;10.63;;;13.00;94.60;;;;;;5055254;28;20439;-72
2022/09/12 04:32:24;;;;;;;21.57;10.93;;;12.90;94.70;;;;;;5060248;28;20191;-71
2022/09/12 04:34:51;;;;;;;15.80;9.40;;;12.90;94.90;;;;;;5056297;28;20467;-71
2022/09/12 04:37:16;;;;;;;15.27;9.53;;;12.90;95.10;;;;;;5051685;28;20666;-71
2022/09/12 04:39:42;;;;;;;17.57;9.90;;;12.90;95.20;;;;;;5053182;28;20479;-73
2022/09/12 04:42:08;;;;;;;21.67;10.37;;;12.90;95.20;;;;;;5055243;28;20208;-71
2022/09/12 04:44:33;;;;;;;19.50;11.10;;;12.90;95.20;;;;;;5055684;28;20219;-72
2022/09/12 04:46:59;;;;;;;21.87;12.33;;;12.80;95.10;;;;;;5060319;28;20192;-71
2022/09/12 04:49:24;;;;;;;17.27;10.30;;;12.80;95.10;;;;;;5058772;28;20191;-71
2022/09/12 04:51:53;;;;;;;20.97;11.23;;;12.80;95.10;;;;;;5060551;28;20195;-71
2022/09/12 04:54:19;;;;;;;16.37;10.07;;;12.80;95.10;;;;;;5063540;28;20197;-72
2022/09/12 04:56:47;;;;;;;15.07;9.60;;;12.80;95.10;;;;;;5060573;28;20430;-71
2022/09/12 04:59:15;;;;;;;17.93;10.00;;;12.90;95.10;;;;;;5055729;28;20189;-71
2022/09/12 05:01:41;;;;;;;20.03;9.47;;;12.80;95.00;;;;;;5057890;28;20462;-72
2022/09/12 05:04:06;;;;;;;20.50;11.80;;;12.90;95.10;;;;;;5057764;28;20463;-73
2022/09/12 05:06:34;;;;;;;20.90;10.80;;;12.80;95.00;;;;;;5059273;28;20461;-71
2022/09/12 05:09:02;;;;;;;18.83;10.93;;;12.80;95.00;;;;;;5057049;28;20204;-71
2022/09/12 05:11:31;;;;;;;18.33;10.60;;;12.80;94.50;;;;;;5054048;28;20436;-71
2022/09/12 05:13:57;;;;;;;22.40;11.63;;;12.80;94.20;;;;;;5052704;28;20553;-71
2022/09/12 05:16:24;;;;;;;18.00;11.00;;;12.90;94.00;;;;;;5057320;28;20427;-74
2022/09/12 05:18:50;;;;;;;18.07;10.60;;;12.90;93.80;;;;;;5057797;28;20231;-71
2022/09/12 05:21:19;;;;;;;19.90;11.33;;;12.90;93.50;;;;;;5048965;28;20547;-71
2022/09/12 05:23:49;;;;;;;20.67;10.60;;;12.80;93.50;;;;;;5053580;28;21024;-71
2022/09/12 05:26:15;;;;;;;18.10;10.33;;;12.90;93.50;;;;;;5042687;28;20470;-73
2022/09/12 05:28:42;;;;;;;18.03;10.30;;;12.90;93.10;;;;;;5049393;28;20427;-72
2022/09/12 05:31:28;;;;;;;24.70;11.47;;;12.90;93.10;;;;;;5047295;28;20434;-73
2022/09/12 05:33:55;;;;;;;22.80;13.00;;;12.90;93.10;;;;;;5046441;28;21400;-72
2022/09/12 05:36:31;;;;;;;20.90;11.97;;;12.90;93.10;;;;;;5053172;28;20432;-72
2022/09/12 05:38:59;;;;;;;29.40;11.23;;;12.90;93.20;;;;;;5047453;28;20434;-72
2022/09/12 05:41:29;;;;;;;19.33;10.43;;;12.90;93.30;;;;;;5042481;28;20463;-71
2022/09/12 05:43:57;;;;;;;19.30;11.07;;;12.90;93.20;;;;;;5045765;28;20473;-72
2022/09/12 05:46:26;;;;;;;28.73;13.00;;;12.90;92.90;;;;;;5047184;28;20423;-72
2022/09/12 05:48:53;;;;;;;18.57;11.03;;;12.90;92.80;;;;;;5051730;28;20651;-70
2022/09/12 05:51:21;;;;;;;18.77;11.43;;;12.80;92.80;;;;;;5047092;28;20507;-72
2022/09/12 05:53:50;;;;;;;18.13;10.70;;;12.80;92.90;;;;;;5046054;28;20482;-72
2022/09/12 05:56:22;;;;;;;19.30;11.73;;;12.80;93.20;;;;;;5050991;28;20449;-71
2022/09/12 05:58:55;;;;;;;21.40;11.60;;;12.80;93.20;;;;;;5045725;28;20891;-72
2022/09/12 06:01:21;;;;;;;19.73;11.37;;;12.80;93.40;;;;;;5045592;28;20972;-73
2022/09/12 06:03:51;;;;;;;19.33;10.90;;;12.90;93.60;;;;;;5042692;28;20473;-72
2022/09/12 06:06:20;;;;;;;19.60;11.20;;;13.00;93.60;;;;;;5047101;28;20195;-72
2022/09/12 06:08:48;;;;;;;26.37;13.63;;;13.10;93.40;;;;;;5046660;28;20900;-71
2022/09/12 06:11:17;;;;;;;17.30;10.53;;;13.40;93.50;;;;;;5050507;28;20549;-72
2022/09/12 06:13:43;;;;;;;19.90;11.00;;;14.00;93.50;;;;;;5046479;28;20490;-71
2022/09/12 06:16:16;;;;;;;22.07;11.73;;;14.30;92.40;;;;;;5049483;28;20948;-71
2022/09/12 06:18:50;;;;;;;21.90;11.00;;;14.30;91.00;;;;;;5049020;28;20445;-72
2022/09/12 06:21:16;;;;;;;23.17;11.27;;;14.20;90.70;;;;;;5045119;28;20489;-72
2022/09/12 06:23:45;;;;;;;18.73;10.90;;;14.10;90.60;;;;;;5038344;28;20470;-73
2022/09/12 06:26:11;;;;;;;28.20;14.30;;;14.00;90.80;;;;;;5045605;28;20430;-72
2022/09/12 06:28:39;;;;;;;22.47;12.17;;;14.00;90.90;;;;;;5044063;28;20419;-73
2022/09/12 06:31:10;;;;;;;23.00;11.90;;;13.90;91.20;;;;;;5039668;28;20423;-71
2022/09/12 06:33:42;;;;;;;22.10;12.13;;;14.00;91.20;;;;;;5046707;28;20463;-73
2022/09/12 06:36:41;;;;;;;26.27;12.00;;;13.90;91.40;;;;;;5037201;28;20523;-71
2022/09/12 06:39:10;;;;;;;22.30;12.70;;;13.90;91.50;;;;;;4982812;28;20887;-74
2022/09/12 06:41:36;;;;;;;17.40;11.80;;;13.90;91.70;;;;;;4970696;28;20563;-73
2022/09/12 06:44:02;;;;;;;25.87;12.83;;;14.00;91.90;;;;;;4986970;28;20542;-73
2022/09/12 06:46:28;;;;;;;25.90;14.60;;;14.00;91.90;;;;;;4982179;28;20192;-73
2022/09/12 06:48:58;;;;;;;55.07;32.73;;;14.00;91.90;;;;;;4989830;28;20437;-72
2022/09/12 06:51:25;;;;;;;31.37;19.27;;;14.10;92.00;;;;;;4980749;28;20526;-72
2022/09/12 06:53:51;;;;;;;23.60;13.67;;;14.10;92.10;;;;;;4966376;28;20474;-71
2022/09/12 06:56:21;;;;;;;33.70;18.60;;;14.10;92.20;;;;;;4980716;28;20430;-72
2022/09/12 06:58:49;;;;;;;114.77;52.70;;;14.20;92.20;;;;;;4987766;28;20520;-72
2022/09/12 07:01:19;;;;;;;41.20;19.77;;;14.20;92.20;;;;;;4989984;28;20469;-71
2022/09/12 07:03:50;;;;;;;65.00;33.83;;;14.40;92.10;;;;;;4982662;28;20489;-72
2022/09/12 07:06:17;;;;;;;45.90;26.30;;;14.50;91.90;;;;;;4988762;28;20516;-72
2022/09/12 07:08:43;;;;;;;26.07;15.27;;;14.60;91.60;;;;;;4986048;28;20464;-71
2022/09/12 07:11:14;;;;;;;70.40;34.47;;;14.70;91.40;;;;;;4982727;28;20458;-72
2022/09/12 07:13:41;;;;;;;47.70;26.77;;;14.90;91.20;;;;;;4980055;28;20226;-73
2022/09/12 07:16:07;;;;;;;33.20;16.47;;;15.00;90.70;;;;;;5033973;28;20428;-73
2022/09/12 07:18:34;;;;;;;31.80;16.40;;;15.00;90.40;;;;;;5044241;28;20443;-72
2022/09/12 07:21:01;;;;;;;23.90;13.87;;;15.10;90.40;;;;;;5047761;28;20474;-73
2022/09/12 07:23:27;;;;;;;22.07;12.90;;;15.20;90.10;;;;;;5043633;28;20455;-72
2022/09/12 07:25:57;;;;;;;35.90;20.23;;;15.20;90.10;;;;;;5047635;28;20502;-73
2022/09/12 07:28:24;;;;;;;24.43;15.40;;;15.30;89.90;;;;;;5049362;28;20420;-72
2022/09/12 07:30:52;;;;;;;32.93;18.30;;;15.40;89.60;;;;;;5047154;28;20798;-72
2022/09/12 07:33:22;;;;;;;176.53;67.40;;;15.40;89.20;;;;;;5044257;28;20533;-71
2022/09/12 07:35:48;;;;;;;118.67;55.97;;;15.60;89.00;;;;;;5045403;28;20442;-71
2022/09/12 07:38:15;;;;;;;362.67;187.87;;;15.80;88.10;;;;;;5042937;28;20508;-73
2022/09/12 07:40:41;;;;;;;41.27;25.20;;;15.90;87.70;;;;;;5044589;28;20431;-72
2022/09/12 07:43:06;;;;;;;21.17;11.70;;;16.00;87.30;;;;;;5039683;28;20439;-71
2022/09/12 07:45:32;;;;;;;20.67;12.50;;;16.00;87.30;;;;;;5041557;28;20444;-72
2022/09/12 07:47:57;;;;;;;17.00;10.93;;;16.00;87.00;;;;;;5042296;28;20231;-71
2022/09/12 07:50:23;;;;;;;20.20;11.20;;;16.00;86.90;;;;;;5046542;28;20183;-71
2022/09/12 07:52:49;;;;;;;31.47;17.77;;;16.10;87.10;;;;;;5045010;28;20186;-73
2022/09/12 07:55:15;;;;;;;19.13;10.57;;;16.30;86.90;;;;;;5045398;28;20193;-72
2022/09/12 07:57:41;;;;;;;22.33;13.13;;;16.40;86.20;;;;;;5044109;28;20185;-72
2022/09/12 08:00:07;;;;;;;23.70;11.83;;;16.30;86.20;;;;;;5046177;28;20421;-72
2022/09/12 08:02:33;;;;;;;23.37;12.20;;;16.30;86.20;;;;;;5042451;28;20299;-73
2022/09/12 08:04:59;;;;;;;22.60;12.67;;;16.30;86.00;;;;;;5040639;28;21054;-73
2022/09/12 08:07:24;;;;;;;19.07;10.93;;;16.40;85.90;;;;;;5051180;28;20443;-72
2022/09/12 08:09:50;;;;;;;21.50;11.43;;;16.50;85.30;;;;;;5051598;28;20182;-73
2022/09/12 08:12:16;;;;;;;25.57;10.47;;;16.50;85.20;;;;;;5050410;28;20218;-71
2022/09/12 08:14:42;;;;;;;22.27;10.80;;;16.60;84.70;;;;;;5044993;28;20693;-72
2022/09/12 08:17:07;;;;;;;19.70;11.10;;;16.60;84.60;;;;;;5049810;28;20411;-73
2022/09/12 08:19:33;;;;;;;19.30;10.80;;;16.70;84.40;;;;;;5044665;28;20196;-71
2022/09/12 08:21:59;;;;;;;18.80;10.03;;;16.70;84.30;;;;;;5049322;28;20215;-72
2022/09/12 08:24:25;;;;;;;17.53;9.60;;;16.70;84.10;;;;;;5049095;28;20211;-72
2022/09/12 08:26:50;;;;;;;21.43;10.53;;;16.70;84.30;;;;;;5051762;28;20420;-72
2022/09/12 08:29:16;;;;;;;19.87;9.60;;;16.70;84.00;;;;;;5055062;28;20182;-73
2022/09/12 08:31:42;;;;;;;22.60;11.07;;;16.80;83.80;;;;;;5049893;28;20187;-75
2022/09/12 08:34:07;;;;;;;15.43;9.17;;;16.90;83.60;;;;;;5050341;28;20201;-73
2022/09/12 08:36:33;;;;;;;17.80;10.10;;;17.00;83.30;;;;;;5049265;28;20207;-73
2022/09/12 08:39:02;;;;;;;17.60;9.73;;;17.20;82.50;;;;;;5047462;28;20196;-71
2022/09/12 08:41:40;;;;;;;19.50;10.03;;;17.40;82.10;;;;;;5045506;28;21057;-73
2022/09/12 08:44:44;;;;;;;15.40;9.40;;;17.50;81.80;;;;;;5039072;28;20455;-74
2022/09/12 08:47:40;;;;;;;19.60;9.90;;;17.70;81.40;;;;;;5041361;28;20450;-72
2022/09/12 08:50:08;;;;;;;17.27;9.57;;;17.70;80.50;;;;;;5015219;28;21002;-73
2022/09/12 08:52:58;;;;;;;22.97;10.60;;;17.80;80.50;;;;;;5011428;28;20954;-71
2022/09/12 08:55:40;;;;;;;20.93;9.33;;;17.80;80.00;;;;;;5007545;28;20835;-72
2022/09/12 08:58:27;;;;;;;13.17;7.97;;;17.90;79.70;;;;;;5010198;28;20523;-71
2022/09/12 09:01:07;;;;;;;18.03;8.53;;;18.10;79.30;;;;;;5006964;28;20475;-73
2022/09/12 09:03:57;;;;;;;16.37;8.83;;;18.30;78.90;;;;;;5002659;28;20570;-73
2022/09/12 09:06:32;;;;;;;13.60;8.70;;;18.50;77.80;;;;;;5011349;28;20427;-73
2022/09/12 09:09:09;;;;;;;10.90;7.30;;;18.60;77.00;;;;;;5009115;28;20420;-72
2022/09/12 09:11:55;;;;;;;13.93;8.07;;;18.70;76.50;;;;;;5007851;28;20429;-72
2022/09/12 09:14:49;;;;;;;16.97;7.97;;;18.80;75.70;;;;;;5001420;28;20479;-74
2022/09/12 09:17:33;;;;;;;10.07;7.80;;;18.90;75.50;;;;;;5007940;28;20512;-71
2022/09/12 09:20:11;;;;;;;11.37;7.43;;;19.00;75.10;;;;;;5012313;28;20439;-72
2022/09/12 09:22:51;;;;;;;10.20;6.57;;;19.10;74.50;;;;;;5007849;28;20573;-73
2022/09/12 09:25:21;;;;;;;10.90;7.67;;;19.20;73.70;;;;;;5006757;28;20464;-72
2022/09/12 09:27:59;;;;;;;10.70;6.57;;;19.30;73.70;;;;;;5044366;28;20453;-71
2022/09/12 09:30:27;;;;;;;10.30;6.67;;;19.30;73.70;;;;;;5034516;28;20560;-72
2022/09/12 09:32:58;;;;;;;15.43;8.13;;;19.40;73.30;;;;;;5041357;28;20429;-74
2022/09/12 09:35:42;;;;;;;16.10;7.90;;;19.60;73.00;;;;;;5034455;28;20432;-73
2022/09/12 09:38:45;;;;;;;12.37;6.83;;;19.70;71.80;;;;;;5037580;28;20513;-72
2022/09/12 09:41:25;;;;;;;153.87;83.80;;;19.80;71.40;;;;;;5047680;28;20469;-72
2022/09/12 09:43:51;;;;;;;34.40;24.00;;;20.10;75.90;;;;;;5038318;28;21048;-72
2022/09/12 09:46:17;;;;;;;13.83;8.93;;;20.50;75.70;;;;;;5041961;28;20435;-72
2022/09/12 09:48:47;;;;;;;20.60;11.00;;;20.60;70.10;;;;;;5040739;28;20185;-72
2022/09/12 09:51:23;;;;;;;26.60;8.17;;;20.80;71.70;;;;;;5039862;28;20276;-74
2022/09/12 09:54:00;;;;;;;6.37;4.30;;;21.00;68.20;;;;;;5046157;28;20463;-73
2022/09/12 09:56:26;;;;;;;33.17;19.23;;;20.90;67.00;;;;;;5055391;28;20495;-72
2022/09/12 09:58:51;;;;;;;11.10;6.57;;;20.90;68.80;;;;;;5050357;28;20448;-72
2022/09/12 10:01:18;;;;;;;13.33;6.20;;;21.00;67.30;;;;;;5046534;28;20774;-72
2022/09/12 10:03:52;;;;;;;7.17;3.70;;;21.20;65.40;;;;;;5039538;28;20188;-72
2022/09/12 10:06:24;;;;;;;5.37;3.87;;;21.20;60.70;;;;;;5044368;28;20492;-72
2022/09/12 10:08:50;;;;;;;5.10;3.90;;;21.20;62.20;;;;;;5042828;28;20417;-73
2022/09/12 10:11:19;;;;;;;6.03;3.53;;;21.20;63.10;;;;;;5039863;28;20421;-74
2022/09/12 10:13:53;;;;;;;6.23;3.57;;;21.20;62.30;;;;;;5033317;28;20513;-72
2022/09/12 10:16:26;;;;;;;7.80;4.73;;;21.30;61.60;;;;;;5035672;28;20450;-71
2022/09/12 10:18:54;;;;;;;5.03;3.90;;;21.50;60.30;;;;;;5038821;28;20448;-71
2022/09/12 10:21:46;;;;;;;6.50;4.23;;;21.50;59.50;;;;;;5037335;28;20464;-72
2022/09/12 10:24:25;;;;;;;4.00;3.50;;;21.60;60.30;;;;;;5041082;28;20541;-72
2022/09/12 10:27:06;;;;;;;6.17;4.23;;;21.70;59.20;;;;;;5036947;28;20420;-72
2022/09/12 10:29:35;;;;;;;5.30;3.60;;;21.80;59.30;;;;;;5041193;28;20445;-72
2022/09/12 10:32:07;;;;;;;5.10;4.00;;;21.90;58.90;;;;;;5036986;28;20775;-74
2022/09/12 10:34:40;;;;;;;6.87;4.37;;;21.90;58.50;;;;;;5038819;28;20998;-73
2022/09/12 10:37:08;;;;;;;10.30;4.27;;;22.10;58.90;;;;;;5037340;28;20410;-73
2022/09/12 10:39:37;;;;;;;5.70;4.10;;;22.10;56.60;;;;;;5040801;28;20522;-70
2022/09/12 10:42:04;;;;;;;5.07;3.90;;;22.10;57.20;;;;;;5044899;28;20464;-71
2022/09/12 10:44:32;;;;;;;3.47;3.20;;;22.60;57.20;;;;;;5037086;28;20482;-72
2022/09/12 10:46:58;;;;;;;4.33;3.13;;;23.10;55.60;;;;;;5045337;28;20445;-71
2022/09/12 10:49:30;;;;;;;3.77;3.10;;;23.60;54.10;;;;;;5039891;28;20422;-72
2022/09/12 10:52:04;;;;;;;6.37;3.30;;;24.10;52.20;;;;;;5049691;28;20865;-72
2022/09/12 10:54:30;;;;;;;3.23;3.00;;;24.70;50.90;;;;;;5040181;28;20461;-72
2022/09/12 10:57:12;;;;;;;3.80;2.60;;;24.80;50.50;;;;;;5050659;28;20954;-72
2022/09/12 10:59:55;;;;;;;5.20;3.30;;;25.10;49.80;;;;;;5037339;28;20234;-72
2022/09/12 11:02:33;;;;;;;5.03;3.80;;;25.40;48.90;;;;;;5040566;28;20981;-76
2022/09/12 11:05:08;;;;;;;6.43;3.27;;;25.50;46.90;;;;;;5043524;28;20878;-72
2022/09/12 11:07:47;;;;;;;4.70;3.07;;;25.00;48.10;;;;;;5045210;28;20409;-74
2022/09/12 11:10:30;;;;;;;3.63;3.07;;;25.00;48.20;;;;;;5051982;28;20781;-72
2022/09/12 11:13:17;;;;;;;3.30;3.17;;;25.00;48.20;;;;;;5049046;28;20422;-72
2022/09/12 11:16:07;;;;;;;4.30;3.50;;;25.00;46.60;;;;;;5041590;28;20413;-72
2022/09/12 11:19:09;;;;;;;5.00;3.17;;;25.50;46.90;;;;;;5037631;28;20449;-71
2022/09/12 11:22:05;;;;;;;7.60;3.97;;;25.20;48.10;;;;;;5042365;28;20465;-71
2022/09/12 11:25:00;;;;;;;5.27;3.43;;;25.30;49.10;;;;;;5046981;28;20534;-72
2022/09/12 11:27:37;;;;;;;4.03;2.87;;;25.30;47.30;;;;;;5035894;28;20426;-73
2022/09/12 11:30:15;;;;;;;3.30;2.40;;;25.70;47.90;;;;;;5047142;28;20409;-74
2022/09/12 11:32:46;;;;;;;3.57;2.97;;;26.20;46.20;;;;;;5042629;28;20481;-72
2022/09/12 11:35:28;;;;;;;3.03;2.50;;;26.20;45.80;;;;;;5044099;28;20441;-74
2022/09/12 11:38:27;;;;;;;3.70;2.83;;;25.80;45.90;;;;;;5049927;28;20433;-73
2022/09/12 11:40:54;;;;;;;2.67;2.43;;;25.70;45.80;;;;;;5051439;28;20780;-73
2022/09/12 11:43:42;;;;;;;4.77;3.10;;;25.60;45.90;;;;;;5051205;28;20465;-73
2022/09/12 11:46:43;;;;;;;4.47;2.60;;;25.70;46.50;;;;;;5044931;28;20468;-72
2022/09/12 11:49:12;;;;;;;7.60;5.57;;;26.00;43.70;;;;;;4991329;28;20429;-71
2022/09/12 11:51:54;;;;;;;2.80;2.53;;;25.50;44.50;;;;;;4990110;28;20572;-72
2022/09/12 11:54:51;;;;;;;9.70;3.77;;;25.60;44.10;;;;;;4984836;28;20476;-72
2022/09/12 11:57:48;;;;;;;20.23;15.03;;;25.50;45.10;;;;;;4993568;28;20433;-70
2022/09/12 12:00:22;;;;;;;11.80;8.20;;;26.30;42.70;;;;;;4982623;28;20431;-72
2022/09/12 12:03:02;;;;;;;6.27;4.20;;;26.80;40.00;;;;;;4993552;28;20490;-74
2022/09/12 12:05:38;;;;;;;9.70;8.07;;;26.90;38.80;;;;;;4991492;28;20444;-74
2022/09/12 12:08:05;;;;;;;2.83;2.20;;;27.20;38.70;;;;;;4975168;28;20988;-73
2022/09/12 12:10:38;;;;;;;21.07;15.03;;;27.10;39.20;;;;;;5001761;28;21389;-72
2022/09/12 12:13:15;;;;;;;2.13;2.00;;;27.30;38.60;;;;;;4989649;28;20432;-73
2022/09/12 12:16:03;;;;;;;3.73;2.43;;;27.40;37.60;;;;;;4990115;28;20424;-75
2022/09/12 12:18:31;;;;;;;7.43;4.30;;;27.50;37.60;;;;;;4992522;28;20441;-72
2022/09/12 12:21:34;;;;;;;6.97;4.47;;;27.70;38.60;;;;;;4989704;28;20939;-72
2022/09/12 12:24:08;;;;;;;2.77;1.50;;;28.00;36.40;;;;;;4967920;28;20468;-72
2022/09/12 12:26:39;;;;;;;3.83;2.30;;;27.90;35.10;;;;;;5041669;28;20480;-71
2022/09/12 12:29:31;;;;;;;2.70;2.10;;;27.90;36.20;;;;;;5040473;28;20524;-71
2022/09/12 12:32:03;;;;;;;3.80;2.50;;;27.40;37.00;;;;;;5042232;28;20447;-72
2022/09/12 12:34:32;;;;;;;20.73;14.67;;;26.70;40.70;;;;;;5044761;28;20842;-72
2022/09/12 12:37:18;;;;;;;7.57;5.47;;;26.90;40.30;;;;;;5042444;28;20497;-75
2022/09/12 12:39:59;;;;;;;4.80;2.20;;;27.00;40.40;;;;;;5040813;28;20809;-73
2022/09/12 12:42:34;;;;;;;4.20;2.80;;;26.70;41.00;;;;;;5046924;28;20473;-72
2022/09/12 12:45:00;;;;;;;9.17;6.73;;;26.80;41.90;;;;;;5044182;28;20460;-73
2022/09/12 12:47:39;;;;;;;2.13;1.93;;;27.30;40.80;;;;;;5044748;28;21116;-71
2022/09/12 12:50:25;;;;;;;3.30;2.83;;;27.30;39.50;;;;;;5043150;28;20425;-73
2022/09/12 12:53:14;;;;;;;5.00;2.20;;;27.50;38.30;;;;;;5038096;28;20427;-76
2022/09/12 12:55:43;;;;;;;25.77;17.20;;;27.30;38.70;;;;;;5041806;28;20552;-71
2022/09/12 12:58:33;;;;;;;6.07;2.63;;;27.50;38.70;;;;;;5050563;28;20445;-72
2022/09/12 13:01:08;;;;;;;2.83;2.00;;;27.20;38.60;;;;;;5042541;28;20430;-73
2022/09/12 13:03:36;;;;;;;6.77;4.57;;;27.60;38.60;;;;;;5041877;28;20454;-74